Time;durP1;ratioP1;P1;durP2;ratioP2;P2;SDS_P1;SDS_P2;PMS_P1;PMS_P2;Temp;Humidity;BMP_temperature;BMP_pressure;BME280_temperature;BME280_humidity;BME280_pressure;Samples;Min_cycle;Max_cycle;Signal;HPM_P1;HPM_P2
2023/12/19 00:00:10;;;;;;;7.00;6.27;;;6.70;5.30;;;;;;5097554;28;20433;-42
2023/12/19 00:02:35;;;;;;;8.33;6.70;;;6.70;1.00;;;;;;5098064;28;20448;-43
2023/12/19 00:05:01;;;;;;;6.33;5.40;;;6.70;1.00;;;;;;5099231;28;20500;-40
2023/12/19 00:07:29;;;;;;;7.87;5.97;;;6.70;1.00;;;;;;5099462;28;20256;-42
2023/12/19 00:09:54;;;;;;;7.27;5.80;;;6.70;1.00;;;;;;5099807;28;20290;-40
2023/12/19 00:12:20;;;;;;;5.77;5.10;;;6.70;1.00;;;;;;5099328;28;20458;-41
2023/12/19 00:14:45;;;;;;;5.80;5.23;;;6.70;1.00;;;;;;5099549;28;20597;-42
2023/12/19 00:17:11;;;;;;;5.93;5.30;;;6.60;1.00;;;;;;5099351;28;20245;-41
2023/12/19 00:19:36;;;;;;;5.67;5.13;;;6.60;1.00;;;;;;5099571;28;20265;-40
2023/12/19 00:22:02;;;;;;;5.40;4.90;;;6.60;1.00;;;;;;5098563;28;20249;-40
2023/12/19 00:24:28;;;;;;;5.00;4.50;;;6.60;15.40;;;;;;5099316;28;20191;-41
2023/12/19 00:26:53;;;;;;;5.83;4.13;;;6.70;99.90;;;;;;5099053;28;20177;-42
2023/12/19 00:29:19;;;;;;;5.50;4.00;;;7.40;99.90;;;;;;5098464;28;20635;-42
2023/12/19 00:31:45;;;;;;;8.00;3.80;;;8.40;1.00;;;;;;5098364;28;20593;-43
2023/12/19 00:34:10;;;;;;;8.73;4.23;;;9.30;1.00;;;;;;5097436;28;20161;-40
2023/12/19 00:36:36;;;;;;;10.73;5.03;;;10.20;1.00;;;;;;5078975;28;20470;-40
2023/12/19 00:39:04;;;;;;;4.67;4.20;;;10.70;1.00;;;;;;5097894;28;20230;-42
2023/12/19 00:41:30;;;;;;;10.00;4.50;;;10.70;1.00;;;;;;5098470;28;20291;-39
2023/12/19 00:43:55;;;;;;;5.83;4.40;;;10.50;52.20;;;;;;5097776;28;20507;-41
2023/12/19 00:46:21;;;;;;;9.13;4.63;;;10.10;28.80;;;;;;5098831;28;20185;-40
2023/12/19 00:48:47;;;;;;;5.40;4.70;;;9.60;99.90;;;;;;5097988;28;20263;-38
2023/12/19 00:51:13;;;;;;;5.60;4.60;;;9.20;99.90;;;;;;5097723;28;20474;-38
2023/12/19 00:53:41;;;;;;;6.77;4.50;;;8.90;1.00;;;;;;5098190;28;20480;-39
2023/12/19 00:56:08;;;;;;;4.97;4.47;;;8.50;57.90;;;;;;5097933;28;20269;-40
2023/12/19 00:58:35;;;;;;;5.10;4.60;;;8.30;1.00;;;;;;5080444;28;20506;-39
2023/12/19 01:01:01;;;;;;;5.00;4.27;;;8.10;1.00;;;;;;5097740;28;20690;-39
2023/12/19 01:03:26;;;;;;;5.80;4.40;;;7.90;99.90;;;;;;5098172;28;20422;-41
2023/12/19 01:05:52;;;;;;;4.27;3.80;;;7.80;99.90;;;;;;5098314;28;20173;-40
2023/12/19 01:08:17;;;;;;;3.97;3.17;;;7.60;99.90;;;;;;5098448;28;20184;-41
2023/12/19 01:10:43;;;;;;;4.47;3.13;;;7.50;99.90;;;;;;5080638;28;20172;-41
2023/12/19 01:13:08;;;;;;;5.50;4.47;;;7.50;50.20;;;;;;5098327;28;20176;-40
2023/12/19 01:15:34;;;;;;;3.63;3.33;;;7.40;1.00;;;;;;5098446;28;20204;-42
2023/12/19 01:17:59;;;;;;;3.30;3.00;;;7.40;1.00;;;;;;5098516;28;20181;-41
2023/12/19 01:20:25;;;;;;;3.40;2.97;;;7.30;1.00;;;;;;5097795;28;20177;-40
2023/12/19 01:22:50;;;;;;;3.93;3.10;;;7.30;1.00;;;;;;5098092;28;20180;-43
2023/12/19 01:25:16;;;;;;;3.23;2.93;;;7.30;1.00;;;;;;5098137;28;20198;-42
2023/12/19 01:27:41;;;;;;;3.73;2.67;;;7.30;1.00;;;;;;5098040;28;20207;-40
2023/12/19 01:30:07;;;;;;;3.67;3.20;;;7.30;1.00;;;;;;5097461;28;20207;-40
2023/12/19 01:32:33;;;;;;;4.27;3.60;;;7.30;1.00;;;;;;5098303;28;20176;-42
2023/12/19 01:34:58;;;;;;;3.23;2.80;;;7.20;1.00;;;;;;5098307;28;20997;-40
2023/12/19 01:37:24;;;;;;;3.20;2.67;;;7.20;1.00;;;;;;5080106;28;20245;-47
2023/12/19 01:39:50;;;;;;;3.20;2.90;;;7.20;1.00;;;;;;5097438;28;20173;-40
2023/12/19 01:42:15;;;;;;;2.83;2.50;;;7.20;1.00;;;;;;5097908;28;20180;-39
2023/12/19 01:44:40;;;;;;;3.10;2.80;;;7.20;1.00;;;;;;5097813;28;20177;-40
2023/12/19 01:47:06;;;;;;;3.53;2.77;;;7.20;1.00;;;;;;5097186;28;20181;-43
2023/12/19 01:49:32;;;;;;;2.83;2.40;;;7.10;1.00;;;;;;5097537;28;20169;-39
2023/12/19 01:51:57;;;;;;;3.60;3.30;;;7.20;1.00;;;;;;5097127;28;20232;-40
2023/12/19 01:54:23;;;;;;;2.97;2.40;;;7.20;1.00;;;;;;5079274;28;20242;-39
2023/12/19 01:56:49;;;;;;;2.87;2.47;;;7.10;1.00;;;;;;5097126;28;20223;-40
2023/12/19 01:59:15;;;;;;;3.70;2.53;;;7.10;1.00;;;;;;5097100;28;20187;-41
2023/12/19 02:01:41;;;;;;;3.57;2.87;;;7.10;1.00;;;;;;5079982;28;20253;-40
2023/12/19 02:04:07;;;;;;;2.97;2.53;;;7.10;1.00;;;;;;5062608;28;20441;-40
2023/12/19 02:06:35;;;;;;;3.50;2.20;;;7.10;1.00;;;;;;5079418;28;20195;-42
2023/12/19 02:09:02;;;;;;;3.10;2.40;;;7.10;1.00;;;;;;5079359;28;20832;-40
2023/12/19 02:11:28;;;;;;;3.63;3.13;;;7.00;1.00;;;;;;5079279;28;20454;-41
2023/12/19 02:13:56;;;;;;;4.20;3.23;;;7.00;1.00;;;;;;5097372;28;20471;-41
2023/12/19 02:16:22;;;;;;;3.70;3.33;;;7.00;1.00;;;;;;5079746;28;20473;-41
2023/12/19 02:19:03;;;;;;;3.90;3.40;;;7.00;1.00;;;;;;5079513;28;20867;-40
2023/12/19 02:21:29;;;;;;;4.27;3.87;;;6.90;1.00;;;;;;5097432;28;20425;-41
2023/12/19 02:23:55;;;;;;;3.00;2.53;;;6.90;1.00;;;;;;5096928;28;20417;-40
2023/12/19 02:26:20;;;;;;;3.20;2.53;;;6.90;1.00;;;;;;5096923;28;20418;-41
2023/12/19 02:28:46;;;;;;;3.90;2.60;;;6.80;1.00;;;;;;5079178;28;20185;-41
2023/12/19 02:31:11;;;;;;;2.77;2.50;;;6.80;1.00;;;;;;5097324;28;20212;-40
2023/12/19 02:33:37;;;;;;;2.90;2.33;;;6.80;1.00;;;;;;5097443;28;20230;-40
2023/12/19 02:36:03;;;;;;;3.80;2.87;;;6.80;1.00;;;;;;5096904;28;20312;-42
2023/12/19 02:38:28;;;;;;;4.00;2.93;;;6.80;1.00;;;;;;5097132;28;20184;-41
2023/12/19 02:40:54;;;;;;;2.77;2.10;;;6.80;1.00;;;;;;5096928;28;20575;-39
2023/12/19 02:43:19;;;;;;;3.13;2.80;;;6.80;1.00;;;;;;5097143;28;20272;-40
2023/12/19 02:45:45;;;;;;;3.00;2.57;;;6.70;1.00;;;;;;5096701;28;20217;-40
2023/12/19 02:48:10;;;;;;;3.00;2.70;;;6.70;1.00;;;;;;5079789;28;20216;-42
2023/12/19 02:50:36;;;;;;;2.53;2.23;;;6.70;1.00;;;;;;5096937;28;20259;-42
2023/12/19 02:53:02;;;;;;;3.87;2.73;;;6.70;1.00;;;;;;5101869;28;20195;-39
2023/12/19 02:55:28;;;;;;;3.20;2.40;;;6.70;1.00;;;;;;5085897;28;20208;-41
2023/12/19 02:57:53;;;;;;;2.90;2.50;;;6.70;1.00;;;;;;5103060;28;20207;-42
2023/12/19 03:00:19;;;;;;;2.90;2.30;;;6.70;1.00;;;;;;5102119;28;21106;-41
2023/12/19 03:02:44;;;;;;;2.80;2.27;;;6.70;1.00;;;;;;5103379;28;20240;-42
2023/12/19 03:05:10;;;;;;;3.00;2.53;;;6.70;1.00;;;;;;5100771;28;20263;-40
2023/12/19 03:07:36;;;;;;;2.73;2.43;;;6.70;1.00;;;;;;5100985;28;20188;-40
2023/12/19 03:10:05;;;;;;;3.37;2.77;;;6.70;1.00;;;;;;5099724;28;20194;-41
2023/12/19 03:12:31;;;;;;;3.40;2.70;;;6.70;1.00;;;;;;5101013;28;20195;-41
2023/12/19 03:14:57;;;;;;;3.77;2.53;;;6.60;1.00;;;;;;5100050;28;20470;-40
2023/12/19 03:17:22;;;;;;;2.73;2.40;;;6.60;1.00;;;;;;5100548;28;20818;-40
2023/12/19 03:19:48;;;;;;;2.20;2.00;;;6.60;1.00;;;;;;5100160;28;20195;-40
2023/12/19 03:22:13;;;;;;;2.93;2.60;;;6.60;1.00;;;;;;5100515;28;20188;-40
2023/12/19 03:24:39;;;;;;;2.33;2.07;;;6.60;1.00;;;;;;5100517;28;20184;-40
2023/12/19 03:27:05;;;;;;;3.17;2.63;;;6.60;1.00;;;;;;5081627;28;20188;-41
2023/12/19 03:29:32;;;;;;;2.97;2.57;;;6.70;1.00;;;;;;5099275;28;20186;-41
2023/12/19 03:31:58;;;;;;;3.00;2.43;;;6.60;1.00;;;;;;5082419;28;20184;-40
2023/12/19 03:34:23;;;;;;;3.60;2.30;;;6.70;1.00;;;;;;5099900;28;20867;-40
2023/12/19 03:36:49;;;;;;;3.00;2.70;;;6.70;1.00;;;;;;5099804;28;20302;-41
2023/12/19 03:39:14;;;;;;;2.63;2.13;;;6.60;1.00;;;;;;5082025;28;20337;-41
2023/12/19 03:41:40;;;;;;;2.67;2.30;;;6.60;1.00;;;;;;5099470;28;20565;-39
2023/12/19 03:44:06;;;;;;;2.17;1.97;;;6.60;1.00;;;;;;5099117;28;20192;-41
2023/12/19 03:46:31;;;;;;;2.33;1.97;;;6.60;1.00;;;;;;5098597;28;20185;-43
2023/12/19 03:48:57;;;;;;;2.80;2.03;;;6.60;1.00;;;;;;5099186;28;20188;-40
2023/12/19 03:51:22;;;;;;;2.67;2.23;;;6.50;1.00;;;;;;5098900;28;20237;-39
2023/12/19 03:53:48;;;;;;;3.23;2.93;;;6.50;1.00;;;;;;5097621;28;20184;-41
2023/12/19 03:56:13;;;;;;;3.07;2.60;;;6.40;1.00;;;;;;5098912;28;20208;-40
2023/12/19 03:58:39;;;;;;;3.87;2.50;;;6.40;1.00;;;;;;5099548;28;20187;-40
2023/12/19 04:01:05;;;;;;;2.90;2.47;;;6.30;1.00;;;;;;5099067;28;20244;-39
2023/12/19 04:03:30;;;;;;;2.63;2.07;;;6.30;1.00;;;;;;5097865;28;20492;-39
2023/12/19 04:05:56;;;;;;;2.40;2.17;;;6.20;1.00;;;;;;5098785;28;20188;-39
2023/12/19 04:08:22;;;;;;;4.07;3.40;;;6.20;1.00;;;;;;5099140;28;20263;-41
2023/12/19 04:10:47;;;;;;;3.60;2.47;;;6.10;1.00;;;;;;5099332;28;20231;-40
2023/12/19 04:13:13;;;;;;;3.27;2.97;;;6.10;1.00;;;;;;5098609;28;20420;-41
2023/12/19 04:15:38;;;;;;;3.07;2.60;;;6.00;1.00;;;;;;5099130;28;20590;-41
2023/12/19 04:18:04;;;;;;;2.30;2.10;;;6.00;1.00;;;;;;5098653;28;20207;-42
2023/12/19 04:20:29;;;;;;;2.97;2.67;;;6.00;1.00;;;;;;5099079;28;20197;-42
2023/12/19 04:22:55;;;;;;;2.57;2.07;;;5.90;1.00;;;;;;5099074;28;20206;-43
2023/12/19 04:25:21;;;;;;;3.53;2.53;;;6.00;1.00;;;;;;5099134;28;20287;-40
2023/12/19 04:27:46;;;;;;;2.33;2.10;;;6.00;1.00;;;;;;5098820;28;20185;-41
2023/12/19 04:30:12;;;;;;;3.60;2.67;;;5.90;1.00;;;;;;5097449;28;20570;-44
2023/12/19 04:32:37;;;;;;;2.97;2.30;;;5.90;1.00;;;;;;5094260;28;20411;-40
2023/12/19 04:35:04;;;;;;;2.90;2.40;;;5.90;1.00;;;;;;5098690;28;20219;-40
2023/12/19 04:37:29;;;;;;;3.13;2.83;;;5.90;1.00;;;;;;5098827;28;20187;-40
2023/12/19 04:39:55;;;;;;;3.10;2.80;;;5.90;1.00;;;;;;5080146;28;20505;-44
2023/12/19 04:42:20;;;;;;;3.63;3.00;;;5.90;1.00;;;;;;5096880;28;20177;-40
2023/12/19 04:44:46;;;;;;;4.17;3.60;;;5.90;1.00;;;;;;5096226;28;20183;-40
2023/12/19 04:47:12;;;;;;;4.67;3.20;;;5.90;1.00;;;;;;5096933;28;20604;-41
2023/12/19 04:49:39;;;;;;;2.93;2.30;;;5.90;1.00;;;;;;5079492;28;20852;-40
2023/12/19 04:52:05;;;;;;;3.40;2.60;;;5.90;1.00;;;;;;5097846;28;20708;-41
2023/12/19 04:54:30;;;;;;;3.20;2.90;;;5.90;1.00;;;;;;5099079;28;20430;-40
2023/12/19 04:56:56;;;;;;;2.83;2.53;;;5.90;1.00;;;;;;5098972;28;20532;-40
2023/12/19 04:59:21;;;;;;;4.10;2.80;;;5.90;1.00;;;;;;5099126;28;20266;-41
2023/12/19 05:01:47;;;;;;;2.87;2.37;;;5.90;1.00;;;;;;5098150;28;20203;-41
2023/12/19 05:04:12;;;;;;;3.47;2.10;;;5.90;1.00;;;;;;5096600;28;20177;-42
2023/12/19 05:06:38;;;;;;;2.57;2.07;;;5.90;1.00;;;;;;5077105;28;20287;-41
2023/12/19 05:09:03;;;;;;;2.13;1.93;;;5.90;1.00;;;;;;5078095;28;20242;-41
2023/12/19 05:11:29;;;;;;;3.30;2.63;;;5.90;1.00;;;;;;5095412;28;20263;-41
2023/12/19 05:13:56;;;;;;;2.97;2.50;;;5.90;1.00;;;;;;5094493;28;20212;-40
2023/12/19 05:16:21;;;;;;;2.40;2.20;;;5.90;1.00;;;;;;5076290;28;20234;-41
2023/12/19 05:18:47;;;;;;;2.90;2.60;;;5.90;1.00;;;;;;5094314;28;20426;-42
2023/12/19 05:21:12;;;;;;;2.50;2.30;;;5.90;1.00;;;;;;5076825;28;20172;-41
2023/12/19 05:23:39;;;;;;;3.40;2.53;;;5.90;1.00;;;;;;5095777;28;20496;-41
2023/12/19 05:26:05;;;;;;;2.40;2.10;;;5.90;1.00;;;;;;5095301;28;20184;-41
2023/12/19 05:28:31;;;;;;;2.80;2.10;;;5.90;1.00;;;;;;5095036;28;20648;-41
2023/12/19 05:30:57;;;;;;;2.87;2.60;;;5.90;1.00;;;;;;5093656;28;20564;-40
2023/12/19 05:33:27;;;;;;;3.33;2.30;;;5.90;1.00;;;;;;5096036;28;20422;-41
2023/12/19 05:35:53;;;;;;;3.00;2.33;;;5.90;1.00;;;;;;5096725;28;20591;-42
2023/12/19 05:38:19;;;;;;;3.70;2.70;;;5.90;1.00;;;;;;5079198;28;20415;-40
2023/12/19 05:40:46;;;;;;;2.87;2.30;;;5.80;1.00;;;;;;5095916;28;20487;-42
2023/12/19 05:43:13;;;;;;;3.30;2.40;;;5.80;1.00;;;;;;5095753;28;20176;-40
2023/12/19 05:45:38;;;;;;;3.20;2.13;;;5.80;1.00;;;;;;5094648;28;20422;-42
2023/12/19 05:48:04;;;;;;;2.53;2.33;;;5.80;1.00;;;;;;5093997;28;20738;-40
2023/12/19 05:50:30;;;;;;;3.40;2.70;;;5.80;1.00;;;;;;5078240;28;20250;-42
2023/12/19 05:52:55;;;;;;;2.90;2.57;;;5.80;1.00;;;;;;5093904;28;20426;-41
2023/12/19 05:55:21;;;;;;;3.43;2.47;;;5.80;1.00;;;;;;5090796;28;20254;-41
2023/12/19 05:57:47;;;;;;;3.43;2.50;;;5.80;1.00;;;;;;5093331;28;20543;-42
2023/12/19 06:00:13;;;;;;;3.60;2.40;;;5.80;1.00;;;;;;5093838;28;20434;-41
2023/12/19 06:02:39;;;;;;;3.10;2.33;;;5.80;1.00;;;;;;5095203;28;20168;-42
2023/12/19 06:05:07;;;;;;;2.57;2.17;;;5.70;1.00;;;;;;5061285;28;20448;-41
2023/12/19 06:07:37;;;;;;;4.17;2.90;;;5.70;1.00;;;;;;5093991;28;20493;-40
2023/12/19 06:10:10;;;;;;;3.50;2.57;;;5.70;1.00;;;;;;5093045;28;20512;-43
2023/12/19 06:12:36;;;;;;;2.87;2.03;;;5.70;1.00;;;;;;5090958;28;20430;-41
2023/12/19 06:15:02;;;;;;;3.43;2.23;;;5.70;1.00;;;;;;5090440;28;20485;-40
2023/12/19 06:17:29;;;;;;;2.83;2.40;;;5.70;1.00;;;;;;5092061;28;20812;-40
2023/12/19 06:19:55;;;;;;;3.00;2.63;;;5.70;1.00;;;;;;5092047;28;20912;-41
2023/12/19 06:22:21;;;;;;;3.00;2.63;;;5.70;1.00;;;;;;5089846;28;20492;-41
2023/12/19 06:24:46;;;;;;;3.10;2.40;;;5.70;1.00;;;;;;5072670;28;20204;-40
2023/12/19 06:27:15;;;;;;;3.00;2.40;;;5.70;1.00;;;;;;5092754;28;20300;-40
2023/12/19 06:29:42;;;;;;;2.87;2.07;;;5.70;1.00;;;;;;5094333;28;20165;-41
2023/12/19 06:32:10;;;;;;;3.27;2.17;;;5.70;1.00;;;;;;5074446;28;20418;-40
2023/12/19 06:34:36;;;;;;;6.00;2.60;;;5.70;1.00;;;;;;5095376;28;20521;-42
2023/12/19 06:37:03;;;;;;;2.50;2.10;;;5.70;1.00;;;;;;5078393;28;20978;-41
2023/12/19 06:39:28;;;;;;;2.90;2.60;;;5.70;1.00;;;;;;5096550;28;20422;-51
2023/12/19 06:41:54;;;;;;;3.00;2.30;;;5.70;1.00;;;;;;5096134;28;20827;-41
2023/12/19 06:44:20;;;;;;;2.77;2.27;;;5.60;1.00;;;;;;5096018;28;20180;-40
2023/12/19 06:46:49;;;;;;;2.50;2.17;;;5.60;1.00;;;;;;5095197;28;20218;-41
2023/12/19 06:49:18;;;;;;;3.50;2.33;;;5.60;1.00;;;;;;5094044;28;20433;-40
2023/12/19 06:51:44;;;;;;;2.87;2.57;;;5.60;1.00;;;;;;5095772;28;20762;-40
2023/12/19 06:54:09;;;;;;;3.37;2.87;;;5.60;1.00;;;;;;5094888;28;20544;-43
2023/12/19 06:56:35;;;;;;;2.60;2.20;;;5.50;1.00;;;;;;5095001;28;20465;-40
2023/12/19 06:59:01;;;;;;;2.20;2.00;;;5.50;1.00;;;;;;5092543;28;20177;-40
2023/12/19 07:01:27;;;;;;;3.03;2.73;;;5.50;1.00;;;;;;5077901;28;20179;-40
2023/12/19 07:03:53;;;;;;;2.37;2.17;;;5.50;1.00;;;;;;5096354;28;20403;-39
2023/12/19 07:06:19;;;;;;;3.23;2.70;;;5.40;1.00;;;;;;5096372;28;20253;-40
2023/12/19 07:08:44;;;;;;;3.30;2.33;;;5.40;1.00;;;;;;5097973;28;20187;-42
2023/12/19 07:11:10;;;;;;;3.67;2.90;;;5.40;1.00;;;;;;5096499;28;20252;-40
2023/12/19 07:13:36;;;;;;;3.07;2.50;;;5.40;1.00;;;;;;5077619;28;20558;-39
2023/12/19 07:16:03;;;;;;;3.40;2.80;;;5.40;1.00;;;;;;5097562;28;20204;-41
2023/12/19 07:18:32;;;;;;;4.50;3.07;;;5.40;1.00;;;;;;5097675;28;20661;-41
2023/12/19 07:20:58;;;;;;;3.00;2.70;;;5.40;1.00;;;;;;5096399;28;20675;-39
2023/12/19 07:23:27;;;;;;;3.60;2.50;;;5.30;1.00;;;;;;5094915;28;20533;-41
2023/12/19 07:25:52;;;;;;;3.00;2.30;;;5.30;1.00;;;;;;5095558;28;20187;-42
2023/12/19 07:28:18;;;;;;;4.13;2.50;;;5.30;1.00;;;;;;5095390;28;20715;-41
2023/12/19 07:30:44;;;;;;;3.40;2.73;;;5.30;1.00;;;;;;5095205;28;20188;-41
2023/12/19 07:33:09;;;;;;;3.03;2.10;;;5.30;1.00;;;;;;5079903;28;20192;-40
2023/12/19 07:35:35;;;;;;;3.27;2.60;;;5.30;1.00;;;;;;5096317;28;20200;-40
2023/12/19 07:38:00;;;;;;;3.63;2.93;;;5.30;1.00;;;;;;5096982;28;20176;-40
2023/12/19 07:40:26;;;;;;;3.40;3.10;;;5.30;1.00;;;;;;5095370;28;20169;-40
2023/12/19 07:42:52;;;;;;;3.93;2.40;;;5.30;1.00;;;;;;5093982;28;20238;-40
2023/12/19 07:45:18;;;;;;;4.07;3.53;;;5.30;1.00;;;;;;5076893;28;20426;-40
2023/12/19 07:47:44;;;;;;;4.73;3.47;;;5.40;1.00;;;;;;5094775;28;20349;-40
2023/12/19 07:50:12;;;;;;;4.13;3.07;;;5.60;1.00;;;;;;5096373;28;20541;-40
2023/12/19 07:52:38;;;;;;;3.60;3.10;;;5.80;1.00;;;;;;5079560;28;20199;-40
2023/12/19 07:55:04;;;;;;;4.73;3.77;;;6.10;1.00;;;;;;5096841;28;20470;-41
2023/12/19 07:57:30;;;;;;;3.70;3.20;;;6.40;1.00;;;;;;5061246;28;20293;-39
2023/12/19 07:59:55;;;;;;;3.60;3.07;;;6.80;1.00;;;;;;5079875;28;20476;-39
2023/12/19 08:02:21;;;;;;;3.97;3.27;;;7.20;1.00;;;;;;5096391;28;20177;-42
2023/12/19 08:04:49;;;;;;;3.93;3.47;;;7.60;1.00;;;;;;5097628;28;20183;-41
2023/12/19 08:07:15;;;;;;;4.10;3.50;;;8.00;1.00;;;;;;5061339;28;20434;-40
2023/12/19 08:09:40;;;;;;;3.30;3.00;;;8.50;1.00;;;;;;5078358;28;20435;-41
2023/12/19 08:12:06;;;;;;;3.60;3.30;;;8.90;1.00;;;;;;5099170;28;20546;-40
2023/12/19 08:14:32;;;;;;;5.00;3.90;;;9.40;1.00;;;;;;5081353;28;20245;-40
2023/12/19 08:16:57;;;;;;;4.43;2.60;;;9.80;1.00;;;;;;5065774;28;20200;-43
2023/12/19 08:19:23;;;;;;;6.87;3.73;;;10.60;99.90;;;;;;5079437;28;20482;-44
2023/12/19 08:21:53;;;;;;;9.73;4.47;;;12.20;1.00;;;;;;5097036;28;20169;-44
2023/12/19 08:24:19;;;;;;;7.33;4.60;;;13.40;99.90;;;;;;5061368;28;20533;-42
2023/12/19 08:26:49;;;;;;;6.67;4.80;;;14.50;99.90;;;;;;5095791;28;20484;-40
2023/12/19 08:29:14;;;;;;;7.17;5.00;;;15.60;1.00;;;;;;5094973;28;20555;-42
2023/12/19 08:31:40;;;;;;;5.63;5.10;;;16.30;99.90;;;;;;5076397;28;20498;-43
2023/12/19 08:34:06;;;;;;;7.30;6.60;;;16.70;87.80;;;;;;5094238;28;20180;-42
2023/12/19 08:36:32;;;;;;;6.83;5.47;;;16.70;1.00;;;;;;5096123;28;20223;-43
2023/12/19 08:38:59;;;;;;;7.23;6.40;;;16.70;1.00;;;;;;5079760;28;20441;-41
2023/12/19 08:41:24;;;;;;;8.00;6.67;;;16.70;1.00;;;;;;5067459;28;20185;-42
2023/12/19 08:43:50;;;;;;;8.10;6.77;;;16.90;1.00;;;;;;5059115;28;20426;-42
2023/12/19 08:46:19;;;;;;;7.10;6.40;;;16.90;1.00;;;;;;5077141;28;20581;-41
2023/12/19 08:48:47;;;;;;;8.07;5.70;;;16.90;1.00;;;;;;5077011;28;20606;-43
2023/12/19 08:51:12;;;;;;;6.23;5.60;;;17.00;1.00;;;;;;5076422;28;20726;-43
2023/12/19 08:53:38;;;;;;;5.80;5.10;;;17.00;1.00;;;;;;5074630;28;20437;-41
2023/12/19 08:56:04;;;;;;;6.70;6.00;;;17.00;1.00;;;;;;5075648;28;20200;-42
2023/12/19 08:58:30;;;;;;;7.30;4.60;;;17.30;1.00;;;;;;5077609;28;20187;-41
2023/12/19 09:00:56;;;;;;;5.80;4.73;;;17.50;1.00;;;;;;5076724;28;20451;-42
2023/12/19 09:03:23;;;;;;;5.50;4.57;;;17.80;1.00;;;;;;5059099;28;20427;-42
2023/12/19 09:05:50;;;;;;;5.03;4.50;;;18.00;1.00;;;;;;5082179;28;20455;-43
2023/12/19 09:08:15;;;;;;;4.83;4.33;;;18.20;1.00;;;;;;5094909;28;20843;-42
2023/12/19 09:10:41;;;;;;;7.50;4.30;;;18.50;1.00;;;;;;5095687;28;20450;-42
2023/12/19 09:13:07;;;;;;;5.47;4.80;;;18.90;1.00;;;;;;5078434;28;20440;-42
2023/12/19 09:15:33;;;;;;;5.20;4.10;;;19.30;1.00;;;;;;5078706;28;20269;-42
2023/12/19 09:17:59;;;;;;;5.50;4.63;;;19.80;1.00;;;;;;5079172;28;20441;-41
2023/12/19 09:20:24;;;;;;;4.17;3.77;;;20.30;1.00;;;;;;5077311;28;20535;-41
2023/12/19 09:22:53;;;;;;;6.63;4.50;;;20.80;1.00;;;;;;5096161;28;20431;-40
2023/12/19 09:25:18;;;;;;;4.43;4.03;;;21.30;1.00;;;;;;5096301;28;20195;-39
2023/12/19 09:27:44;;;;;;;5.43;3.70;;;21.80;1.00;;;;;;5095425;28;20422;-40
2023/12/19 09:30:11;;;;;;;5.43;4.23;;;22.30;1.00;;;;;;5094584;28;20184;-41
2023/12/19 09:32:39;;;;;;;4.60;4.07;;;22.80;1.00;;;;;;5076977;28;20742;-41
2023/12/19 09:35:07;;;;;;;5.10;4.00;;;23.30;1.00;;;;;;5075945;28;20423;-39
2023/12/19 09:37:33;;;;;;;3.90;3.57;;;23.80;1.00;;;;;;5096686;28;20483;-41
2023/12/19 09:39:59;;;;;;;4.50;3.60;;;24.30;1.00;;;;;;5096394;28;20414;-42
2023/12/19 09:42:24;;;;;;;4.10;3.67;;;24.70;1.00;;;;;;5094552;28;20201;-39
2023/12/19 09:44:51;;;;;;;4.60;4.10;;;25.10;1.00;;;;;;5095295;28;20180;-42
2023/12/19 09:47:24;;;;;;;5.13;3.33;;;25.60;1.00;;;;;;5094963;28;20259;-41
2023/12/19 09:49:53;;;;;;;4.03;3.67;;;26.00;1.00;;;;;;5097000;28;20509;-41
2023/12/19 09:52:22;;;;;;;3.67;3.37;;;26.30;1.00;;;;;;5076316;28;20521;-40
2023/12/19 09:54:51;;;;;;;5.13;3.70;;;26.30;1.00;;;;;;5093729;28;20437;-41
2023/12/19 09:57:17;;;;;;;3.73;3.43;;;26.00;1.00;;;;;;5094354;28;20423;-43
2023/12/19 09:59:45;;;;;;;3.67;2.93;;;25.70;1.00;;;;;;5077365;28;20485;-39
2023/12/19 10:02:11;;;;;;;3.40;3.10;;;25.20;1.00;;;;;;5096786;28;20749;-41
2023/12/19 10:04:37;;;;;;;3.17;2.73;;;24.80;1.00;;;;;;5099565;28;20509;-43
2023/12/19 10:07:04;;;;;;;4.97;4.27;;;24.30;1.00;;;;;;5100000;28;20176;-43
2023/12/19 10:09:30;;;;;;;5.57;5.07;;;23.80;1.00;;;;;;5099649;28;20590;-44
2023/12/19 10:12:09;;;;;;;5.30;4.70;;;23.40;1.00;;;;;;5079180;28;20517;-44
2023/12/19 10:14:35;;;;;;;8.03;5.70;;;22.90;1.00;;;;;;5100029;28;20687;-42
2023/12/19 10:17:05;;;;;;;6.17;5.37;;;22.60;1.00;;;;;;5096856;28;20572;-43
2023/12/19 10:19:33;;;;;;;7.13;6.43;;;22.30;1.00;;;;;;5097260;28;20173;-44
2023/12/19 10:22:09;;;;;;;9.23;5.73;;;22.00;1.00;;;;;;5096156;28;20883;-40
2023/12/19 10:24:35;;;;;;;7.33;5.43;;;21.80;1.00;;;;;;5063019;28;20492;-43
2023/12/19 10:27:02;;;;;;;9.13;4.50;;;21.70;1.00;;;;;;5079917;28;20498;-40
2023/12/19 10:29:35;;;;;;;7.20;5.47;;;21.70;1.00;;;;;;5095684;28;20522;-41
2023/12/19 10:32:20;;;;;;;8.87;5.10;;;21.70;1.00;;;;;;5077859;28;20621;-41
2023/12/19 10:34:46;;;;;;;7.17;4.60;;;21.60;1.00;;;;;;5093575;28;20406;-39
2023/12/19 10:37:14;;;;;;;7.90;5.33;;;21.50;1.00;;;;;;5094069;28;20511;-44
2023/12/19 10:39:41;;;;;;;10.60;5.83;;;21.30;1.00;;;;;;5095493;28;20839;-41
2023/12/19 10:42:09;;;;;;;6.37;5.07;;;21.10;1.00;;;;;;5097661;28;20536;-40
2023/12/19 10:44:42;;;;;;;10.40;4.90;;;20.90;1.00;;;;;;5078614;28;20521;-41
2023/12/19 10:47:09;;;;;;;8.73;5.60;;;20.70;1.00;;;;;;5097435;28;20426;-40
2023/12/19 10:49:38;;;;;;;9.23;5.60;;;20.50;1.00;;;;;;5078208;28;20406;-41
2023/12/19 10:52:06;;;;;;;5.70;4.90;;;20.20;1.00;;;;;;5077388;28;20581;-42
2023/12/19 10:54:35;;;;;;;8.77;6.30;;;20.00;1.00;;;;;;5079307;28;20496;-41
2023/12/19 10:57:17;;;;;;;7.70;5.10;;;19.80;1.00;;;;;;5097494;28;20465;-39
2023/12/19 10:59:46;;;;;;;6.57;5.63;;;19.70;1.00;;;;;;5096422;28;20458;-40
2023/12/19 11:02:30;;;;;;;7.77;5.03;;;19.60;1.00;;;;;;5097356;28;20421;-40
2023/12/19 11:05:20;;;;;;;9.50;6.07;;;19.50;1.00;;;;;;5098475;28;20428;-40
2023/12/19 11:07:49;;;;;;;5.83;4.90;;;19.40;1.00;;;;;;5083557;28;20524;-41
2023/12/19 11:10:21;;;;;;;7.73;6.30;;;19.40;1.00;;;;;;5080503;28;20867;-41
2023/12/19 11:12:47;;;;;;;8.57;6.53;;;19.50;1.00;;;;;;5095932;28;20840;-40
2023/12/19 11:15:12;;;;;;;7.00;5.63;;;19.60;1.00;;;;;;5061702;28;21127;-43
2023/12/19 11:17:41;;;;;;;11.33;8.00;;;19.70;1.00;;;;;;5080364;28;20430;-41
2023/12/19 11:20:19;;;;;;;10.60;8.67;;;19.90;1.00;;;;;;5097123;28;20494;-40
2023/12/19 11:23:03;;;;;;;12.70;8.90;;;20.10;1.00;;;;;;5077258;28;20428;-40
2023/12/19 11:25:38;;;;;;;10.73;9.63;;;20.40;1.00;;;;;;5098214;28;20685;-42
2023/12/19 11:28:05;;;;;;;9.73;8.80;;;20.90;1.00;;;;;;5081132;28;20533;-40
2023/12/19 11:30:43;;;;;;;9.43;8.53;;;21.30;1.00;;;;;;5080514;28;20431;-46
2023/12/19 11:33:13;;;;;;;10.63;9.30;;;21.40;1.00;;;;;;5098051;28;20434;-42
2023/12/19 11:35:41;;;;;;;11.60;9.90;;;21.40;1.00;;;;;;5098013;28;20477;-42
2023/12/19 11:38:18;;;;;;;10.33;9.33;;;21.20;1.00;;;;;;5094971;28;20423;-43
2023/12/19 11:40:49;;;;;;;12.33;10.13;;;21.00;1.00;;;;;;5078715;28;20402;-41
2023/12/19 11:43:27;;;;;;;10.17;9.23;;;20.70;1.00;;;;;;5097055;28;20447;-41
2023/12/19 11:46:17;;;;;;;11.83;10.17;;;20.40;1.00;;;;;;5092763;28;20644;-41
2023/12/19 11:48:52;;;;;;;15.57;13.97;;;20.30;1.00;;;;;;5081011;28;20434;-41
2023/12/19 11:51:43;;;;;;;16.97;15.00;;;20.60;1.00;;;;;;5076707;28;20905;-40
2023/12/19 11:54:10;;;;;;;20.67;16.03;;;20.80;1.00;;;;;;5093709;28;20849;-41
2023/12/19 11:56:38;;;;;;;18.50;16.50;;;21.00;1.00;;;;;;5092418;28;20470;-42
2023/12/19 11:59:04;;;;;;;17.77;15.97;;;21.10;1.00;;;;;;5077819;28;20423;-42
2023/12/19 12:01:38;;;;;;;19.20;16.50;;;21.40;1.00;;;;;;5095338;28;20410;-43
2023/12/19 12:04:07;;;;;;;16.97;15.40;;;21.40;1.00;;;;;;5078968;28;20582;-41
2023/12/19 12:06:33;;;;;;;13.10;11.80;;;21.20;1.00;;;;;;5095194;28;20529;-43
2023/12/19 12:08:59;;;;;;;13.30;12.00;;;20.90;1.00;;;;;;5094601;28;20437;-40
2023/12/19 12:11:25;;;;;;;16.93;14.70;;;20.50;1.00;;;;;;5074899;28;20207;-41
2023/12/19 12:14:01;;;;;;;17.03;14.63;;;19.90;1.00;;;;;;5095437;28;20472;-42
2023/12/19 12:16:37;;;;;;;15.20;13.80;;;19.40;1.00;;;;;;5095309;28;20461;-41
2023/12/19 12:19:13;;;;;;;14.30;12.70;;;18.80;1.00;;;;;;5094589;28;20418;-41
2023/12/19 12:21:49;;;;;;;17.47;14.70;;;18.30;1.00;;;;;;5091860;28;20434;-42
2023/12/19 12:24:22;;;;;;;19.80;15.90;;;17.80;1.00;;;;;;5075729;28;20442;-42
2023/12/19 12:26:49;;;;;;;23.43;20.43;;;17.50;1.00;;;;;;5096571;28;20462;-41
2023/12/19 12:29:17;;;;;;;22.80;20.50;;;17.10;1.00;;;;;;5095226;28;20458;-42
2023/12/19 12:31:45;;;;;;;21.60;19.40;;;16.70;1.00;;;;;;5096169;28;20525;-40
2023/12/19 12:34:10;;;;;;;17.90;16.10;;;16.40;1.00;;;;;;5059532;28;20429;-39
2023/12/19 12:36:36;;;;;;;16.90;14.70;;;16.10;1.00;;;;;;5092416;28;21197;-52
2023/12/19 12:39:02;;;;;;;14.87;13.37;;;15.80;1.00;;;;;;5093297;28;20181;-45
2023/12/19 12:41:30;;;;;;;14.87;13.57;;;15.50;1.00;;;;;;5092356;28;20320;-43
2023/12/19 12:43:55;;;;;;;13.07;11.80;;;15.30;1.00;;;;;;5057573;28;20421;-40
2023/12/19 12:46:27;;;;;;;12.67;11.47;;;15.10;1.00;;;;;;5093436;28;20410;-40
2023/12/19 12:48:52;;;;;;;13.67;12.37;;;14.90;1.00;;;;;;5075597;28;20333;-41
2023/12/19 12:51:19;;;;;;;12.27;11.07;;;14.70;1.00;;;;;;5093730;28;20667;-44
2023/12/19 12:53:44;;;;;;;12.47;11.27;;;14.50;1.00;;;;;;5092981;28;20450;-41
2023/12/19 12:56:15;;;;;;;12.33;11.23;;;14.30;1.00;;;;;;5076606;28;20475;-41
2023/12/19 12:58:42;;;;;;;12.70;11.50;;;14.10;1.00;;;;;;5094562;28;20172;-42